AM773 YMEN-YMLT
Flight info
| Callsign | AM773 |
|---|---|
| Flight time | 1h 6m |
| Altitude | 25000 |
| Route | SUNTI H169 IRSOM |
| Aircraft | B350/L-SBGRW/S |
Departure
| Time | 2026-04-21 09:32 |
|---|---|
| Airport | Melbourne Essendon Airport (YMEN) |
Arrival
| Time | 2026-04-21 10:38 |
|---|---|
| Airport | Launceston Airport (YMLT) |
| Time | Latitude | Longitude | Altitude | Speed | Heading |
|---|---|---|---|---|---|
| 2026-04-21 09:07 | -37.72127 | 144.89879 | 265 ft | 0 kts | 267° |
| 2026-04-21 09:13 | -37.72127 | 144.89878 | 265 ft | 1 kts | 267° |
| 2026-04-21 09:13 | -37.72130 | 144.89854 | 265 ft | 3 kts | 237° |
| 2026-04-21 09:13 | -37.72159 | 144.89851 | 265 ft | 5 kts | 172° |
| 2026-04-21 09:14 | -37.72182 | 144.89863 | 265 ft | 1 kts | 131° |
| 2026-04-21 09:14 | -37.72184 | 144.89888 | 264 ft | 5 kts | 83° |
| 2026-04-21 09:14 | -37.72201 | 144.89925 | 264 ft | 7 kts | 161° |
| 2026-04-21 09:14 | -37.72244 | 144.89930 | 263 ft | 3 kts | 179° |
| 2026-04-21 09:15 | -37.72275 | 144.89938 | 263 ft | 6 kts | 153° |
| 2026-04-21 09:15 | -37.72316 | 144.89966 | 262 ft | 7 kts | 151° |
| 2026-04-21 09:15 | -37.72357 | 144.89974 | 261 ft | 7 kts | 180° |
| 2026-04-21 09:15 | -37.72383 | 144.89973 | 261 ft | 5 kts | 182° |
| 2026-04-21 09:16 | -37.72422 | 144.89974 | 262 ft | 7 kts | 178° |
| 2026-04-21 09:16 | -37.72472 | 144.89976 | 262 ft | 7 kts | 178° |
| 2026-04-21 09:16 | -37.72517 | 144.89978 | 263 ft | 8 kts | 178° |
| 2026-04-21 09:16 | -37.72565 | 144.89981 | 264 ft | 7 kts | 178° |
| 2026-04-21 09:17 | -37.72615 | 144.89984 | 266 ft | 7 kts | 178° |
| 2026-04-21 09:17 | -37.72669 | 144.89986 | 266 ft | 8 kts | 178° |
| 2026-04-21 09:17 | -37.72726 | 144.89989 | 266 ft | 8 kts | 178° |
| 2026-04-21 09:17 | -37.72774 | 144.89997 | 266 ft | 7 kts | 140° |
| 2026-04-21 09:18 | -37.72784 | 144.90054 | 266 ft | 8 kts | 88° |
| 2026-04-21 09:18 | -37.72781 | 144.90138 | 264 ft | 10 kts | 87° |
| 2026-04-21 09:18 | -37.72777 | 144.90228 | 264 ft | 10 kts | 88° |
| 2026-04-21 09:18 | -37.72774 | 144.90321 | 264 ft | 11 kts | 88° |
| 2026-04-21 09:19 | -37.72777 | 144.90414 | 264 ft | 11 kts | 103° |
| 2026-04-21 09:19 | -37.72791 | 144.90508 | 263 ft | 11 kts | 101° |
| 2026-04-21 09:19 | -37.72805 | 144.90607 | 262 ft | 12 kts | 101° |
| 2026-04-21 09:19 | -37.72823 | 144.90716 | 261 ft | 13 kts | 101° |
| 2026-04-21 09:20 | -37.72842 | 144.90829 | 260 ft | 13 kts | 103° |
| 2026-04-21 09:20 | -37.72861 | 144.90945 | 259 ft | 13 kts | 102° |
| 2026-04-21 09:20 | -37.72876 | 144.91036 | 259 ft | 8 kts | 103° |
| 2026-04-21 09:20 | -37.72889 | 144.91115 | 257 ft | 7 kts | 97° |
| 2026-04-21 09:21 | -37.72864 | 144.91148 | 258 ft | 3 kts | 19° |
| 2026-04-21 09:21 | -37.72860 | 144.91151 | 258 ft | 0 kts | 37° |
| 2026-04-21 09:27 | -37.72859 | 144.91151 | 258 ft | 0 kts | 37° |
| 2026-04-21 09:27 | -37.72829 | 144.91180 | 258 ft | 0 kts | 37° |
| 2026-04-21 09:27 | -37.72848 | 144.91168 | 258 ft | 3 kts | 74° |
| 2026-04-21 09:28 | -37.72855 | 144.91199 | 257 ft | 5 kts | 133° |
| 2026-04-21 09:28 | -37.72891 | 144.91207 | 255 ft | 4 kts | 201° |
| 2026-04-21 09:28 | -37.72909 | 144.91231 | 253 ft | 5 kts | 99° |
| 2026-04-21 09:28 | -37.72913 | 144.91254 | 253 ft | 0 kts | 102° |
| 2026-04-21 09:29 | -37.72920 | 144.91299 | 251 ft | 4 kts | 103° |
| 2026-04-21 09:29 | -37.72938 | 144.91350 | 250 ft | 6 kts | 122° |
| 2026-04-21 09:30 | -37.72969 | 144.91391 | 249 ft | 7 kts | 144° |
| 2026-04-21 09:30 | -37.73013 | 144.91427 | 247 ft | 8 kts | 148° |
| 2026-04-21 09:30 | -37.73054 | 144.91442 | 246 ft | 8 kts | 201° |
| 2026-04-21 09:30 | -37.73080 | 144.91404 | 246 ft | 3 kts | 263° |
| 2026-04-21 09:31 | -37.73080 | 144.91401 | 247 ft | 0 kts | 270° |
| 2026-04-21 09:31 | -37.73080 | 144.91265 | 250 ft | 53 kts | 266° |
| 2026-04-21 09:31 | -37.73108 | 144.90436 | 263 ft | 126 kts | 271° |
| 2026-04-21 09:31 | -37.73145 | 144.89221 | 584 ft | 140 kts | 270° |
| 2026-04-21 09:32 | -37.73176 | 144.88421 | 909 ft | 136 kts | 269° |
| 2026-04-21 09:32 | -37.73218 | 144.87158 | 1173 ft | 149 kts | 272° |
| 2026-04-21 09:32 | -37.73261 | 144.85879 | 1656 ft | 148 kts | 270° |
| 2026-04-21 09:32 | -37.73323 | 144.84572 | 2100 ft | 149 kts | 270° |
| 2026-04-21 09:33 | -37.73376 | 144.83259 | 2553 ft | 150 kts | 270° |
| 2026-04-21 09:33 | -37.73417 | 144.81935 | 2995 ft | 150 kts | 271° |
| 2026-04-21 09:33 | -37.73751 | 144.80712 | 3418 ft | 155 kts | 226° |
| 2026-04-21 09:33 | -37.74740 | 144.80235 | 3838 ft | 158 kts | 178° |
| 2026-04-21 09:34 | -37.75787 | 144.80646 | 4245 ft | 159 kts | 151° |
| 2026-04-21 09:34 | -37.76771 | 144.81275 | 4669 ft | 160 kts | 155° |
| 2026-04-21 09:34 | -37.77796 | 144.81843 | 5106 ft | 160 kts | 156° |
| 2026-04-21 09:34 | -37.78809 | 144.82394 | 5512 ft | 160 kts | 156° |
| 2026-04-21 09:35 | -37.79834 | 144.82948 | 5915 ft | 161 kts | 157° |
| 2026-04-21 09:35 | -37.80886 | 144.83511 | 6285 ft | 165 kts | 157° |
| 2026-04-21 09:35 | -37.81966 | 144.84088 | 6655 ft | 179 kts | 157° |
| 2026-04-21 09:35 | -37.83172 | 144.84733 | 7008 ft | 195 kts | 157° |
| 2026-04-21 09:36 | -37.84460 | 144.85422 | 7365 ft | 206 kts | 158° |
| 2026-04-21 09:36 | -37.85816 | 144.86149 | 7829 ft | 213 kts | 158° |
| 2026-04-21 09:36 | -37.87182 | 144.86883 | 8414 ft | 215 kts | 158° |
| 2026-04-21 09:36 | -37.88567 | 144.87628 | 9010 ft | 216 kts | 158° |
| 2026-04-21 09:37 | -37.89945 | 144.88367 | 9609 ft | 217 kts | 158° |
| 2026-04-21 09:37 | -37.91343 | 144.89120 | 10215 ft | 217 kts | 158° |
| 2026-04-21 09:37 | -37.92718 | 144.89859 | 10754 ft | 216 kts | 158° |
| 2026-04-21 09:37 | -37.94108 | 144.90607 | 11311 ft | 216 kts | 158° |
| 2026-04-21 09:38 | -37.95475 | 144.91342 | 11867 ft | 215 kts | 158° |
| 2026-04-21 09:38 | -37.96862 | 144.92088 | 12442 ft | 215 kts | 158° |
| 2026-04-21 09:38 | -37.98248 | 144.92835 | 13026 ft | 215 kts | 158° |
| 2026-04-21 09:38 | -37.99616 | 144.93572 | 13612 ft | 215 kts | 158° |
| 2026-04-21 09:39 | -38.00985 | 144.94311 | 14199 ft | 215 kts | 158° |
| 2026-04-21 09:39 | -38.02371 | 144.95058 | 14730 ft | 215 kts | 158° |
| 2026-04-21 09:39 | -38.03737 | 144.95795 | 15272 ft | 214 kts | 159° |
| 2026-04-21 09:39 | -38.05111 | 144.96536 | 15824 ft | 213 kts | 159° |
| 2026-04-21 09:40 | -38.06465 | 144.97268 | 16382 ft | 212 kts | 159° |
| 2026-04-21 09:40 | -38.07808 | 144.97993 | 16947 ft | 211 kts | 159° |
| 2026-04-21 09:40 | -38.09163 | 144.98725 | 17531 ft | 209 kts | 159° |
| 2026-04-21 09:40 | -38.10505 | 144.99450 | 18123 ft | 208 kts | 159° |
| 2026-04-21 09:41 | -38.11821 | 145.00163 | 18703 ft | 206 kts | 159° |
| 2026-04-21 09:41 | -38.13129 | 145.00870 | 19224 ft | 204 kts | 159° |
| 2026-04-21 09:41 | -38.14425 | 145.01572 | 19760 ft | 202 kts | 159° |
| 2026-04-21 09:41 | -38.15715 | 145.02270 | 20302 ft | 200 kts | 159° |
| 2026-04-21 09:42 | -38.16984 | 145.02959 | 20852 ft | 197 kts | 159° |
| 2026-04-21 09:42 | -38.18238 | 145.03638 | 21413 ft | 194 kts | 160° |
| 2026-04-21 09:42 | -38.19459 | 145.04300 | 21970 ft | 192 kts | 160° |
| 2026-04-21 09:42 | -38.20694 | 145.04968 | 22452 ft | 193 kts | 160° |
| 2026-04-21 09:43 | -38.21936 | 145.05642 | 22937 ft | 194 kts | 160° |
| 2026-04-21 09:43 | -38.23176 | 145.06315 | 23404 ft | 196 kts | 160° |
| 2026-04-21 09:43 | -38.24439 | 145.07000 | 23876 ft | 197 kts | 160° |
| 2026-04-21 09:43 | -38.25709 | 145.07690 | 24265 ft | 198 kts | 160° |
| 2026-04-21 09:44 | -38.26976 | 145.08377 | 24641 ft | 200 kts | 160° |
| 2026-04-21 09:44 | -38.28251 | 145.09070 | 25043 ft | 202 kts | 160° |
| 2026-04-21 09:44 | -38.29575 | 145.09789 | 25282 ft | 214 kts | 160° |
| 2026-04-21 09:44 | -38.31023 | 145.10570 | 25291 ft | 235 kts | 160° |
| 2026-04-21 09:45 | -38.32561 | 145.11406 | 25299 ft | 251 kts | 159° |
| 2026-04-21 09:45 | -38.34215 | 145.12308 | 25299 ft | 264 kts | 159° |
| 2026-04-21 09:45 | -38.35888 | 145.13221 | 25298 ft | 274 kts | 159° |
| 2026-04-21 09:45 | -38.36833 | 145.13736 | 25296 ft | 278 kts | 159° |
| 2026-04-21 09:46 | -38.37280 | 145.13980 | 25303 ft | 280 kts | 159° |
| 2026-04-21 09:46 | -38.37732 | 145.14227 | 25300 ft | 281 kts | 159° |
| 2026-04-21 09:46 | -38.38548 | 145.14671 | 25301 ft | 284 kts | 159° |
| 2026-04-21 09:46 | -38.39464 | 145.15170 | 25300 ft | 287 kts | 159° |
| 2026-04-21 09:47 | -38.40379 | 145.15669 | 25301 ft | 289 kts | 159° |
| 2026-04-21 09:47 | -38.41313 | 145.16178 | 25307 ft | 291 kts | 159° |
| 2026-04-21 09:47 | -38.43068 | 145.17136 | 25302 ft | 294 kts | 159° |
| 2026-04-21 09:47 | -38.44948 | 145.18163 | 25305 ft | 297 kts | 159° |
| 2026-04-21 09:48 | -38.46859 | 145.19208 | 25301 ft | 299 kts | 159° |
| 2026-04-21 09:48 | -38.48780 | 145.20258 | 25308 ft | 300 kts | 159° |
| 2026-04-21 09:48 | -38.50716 | 145.21312 | 25305 ft | 301 kts | 160° |
| 2026-04-21 09:48 | -38.52681 | 145.22194 | 25308 ft | 301 kts | 163° |
| 2026-04-21 09:49 | -38.54679 | 145.23057 | 25306 ft | 302 kts | 163° |
| 2026-04-21 09:49 | -38.56656 | 145.23929 | 25305 ft | 303 kts | 163° |
| 2026-04-21 09:49 | -38.58656 | 145.24816 | 25307 ft | 303 kts | 163° |
| 2026-04-21 09:49 | -38.60627 | 145.25681 | 25309 ft | 303 kts | 163° |
| 2026-04-21 09:50 | -38.62632 | 145.26561 | 25308 ft | 303 kts | 163° |
| 2026-04-21 09:50 | -38.64614 | 145.27434 | 25310 ft | 303 kts | 163° |
| 2026-04-21 09:50 | -38.66621 | 145.28321 | 25308 ft | 303 kts | 163° |
| 2026-04-21 09:50 | -38.68604 | 145.29195 | 25307 ft | 303 kts | 163° |
| 2026-04-21 09:51 | -38.70594 | 145.30072 | 25311 ft | 303 kts | 163° |
| 2026-04-21 09:51 | -38.72593 | 145.30956 | 25314 ft | 303 kts | 163° |
| 2026-04-21 09:51 | -38.74578 | 145.31832 | 25313 ft | 302 kts | 163° |
| 2026-04-21 09:51 | -38.76551 | 145.32697 | 25313 ft | 302 kts | 164° |
| 2026-04-21 09:52 | -38.78542 | 145.33550 | 25312 ft | 302 kts | 164° |
| 2026-04-21 09:52 | -38.80535 | 145.34447 | 25314 ft | 302 kts | 163° |
| 2026-04-21 09:52 | -38.82499 | 145.35331 | 25310 ft | 302 kts | 163° |
| 2026-04-21 09:52 | -38.84493 | 145.36210 | 25320 ft | 301 kts | 163° |
| 2026-04-21 09:53 | -38.86483 | 145.37089 | 25314 ft | 301 kts | 163° |
| 2026-04-21 09:53 | -38.88449 | 145.37960 | 25324 ft | 301 kts | 164° |
| 2026-04-21 09:53 | -38.90435 | 145.38844 | 25315 ft | 301 kts | 163° |
| 2026-04-21 09:53 | -38.92418 | 145.39726 | 25318 ft | 301 kts | 163° |
| 2026-04-21 09:54 | -38.94397 | 145.40603 | 25323 ft | 301 kts | 164° |
| 2026-04-21 09:54 | -38.96354 | 145.41476 | 25318 ft | 301 kts | 163° |
| 2026-04-21 09:54 | -38.98335 | 145.42362 | 25321 ft | 301 kts | 163° |
| 2026-04-21 09:54 | -39.00321 | 145.43244 | 25322 ft | 300 kts | 164° |
| 2026-04-21 09:55 | -39.02280 | 145.44111 | 25322 ft | 300 kts | 164° |
| 2026-04-21 09:55 | -39.04257 | 145.44992 | 25328 ft | 300 kts | 163° |
| 2026-04-21 09:55 | -39.06245 | 145.45884 | 25323 ft | 300 kts | 163° |
| 2026-04-21 09:55 | -39.08195 | 145.46754 | 25326 ft | 300 kts | 163° |
| 2026-04-21 09:56 | -39.10169 | 145.47635 | 25327 ft | 300 kts | 163° |
| 2026-04-21 09:56 | -39.12142 | 145.48516 | 25327 ft | 300 kts | 163° |
| 2026-04-21 09:56 | -39.14127 | 145.49401 | 25330 ft | 301 kts | 163° |
| 2026-04-21 09:56 | -39.16111 | 145.50291 | 25329 ft | 301 kts | 163° |
| 2026-04-21 09:57 | -39.18066 | 145.51170 | 25328 ft | 301 kts | 163° |
| 2026-04-21 09:57 | -39.20046 | 145.52055 | 25331 ft | 301 kts | 163° |
| 2026-04-21 09:57 | -39.22025 | 145.52940 | 25333 ft | 301 kts | 163° |
| 2026-04-21 09:57 | -39.23999 | 145.53828 | 25333 ft | 300 kts | 163° |
| 2026-04-21 09:58 | -39.25979 | 145.54717 | 25333 ft | 300 kts | 163° |
| 2026-04-21 09:58 | -39.27940 | 145.55594 | 25333 ft | 300 kts | 163° |
| 2026-04-21 09:58 | -39.29929 | 145.56489 | 25331 ft | 300 kts | 163° |
| 2026-04-21 09:58 | -39.31893 | 145.57374 | 25336 ft | 300 kts | 163° |
| 2026-04-21 09:59 | -39.33856 | 145.58255 | 25335 ft | 300 kts | 163° |
| 2026-04-21 09:59 | -39.35836 | 145.59147 | 25336 ft | 300 kts | 164° |
| 2026-04-21 09:59 | -39.37821 | 145.60042 | 25337 ft | 300 kts | 163° |
| 2026-04-21 09:59 | -39.39803 | 145.60934 | 25335 ft | 300 kts | 164° |
| 2026-04-21 10:00 | -39.41761 | 145.61816 | 25336 ft | 301 kts | 164° |
| 2026-04-21 10:00 | -39.43743 | 145.62712 | 25338 ft | 301 kts | 163° |
| 2026-04-21 10:00 | -39.45706 | 145.63598 | 25338 ft | 301 kts | 163° |
| 2026-04-21 10:00 | -39.47667 | 145.64481 | 25341 ft | 301 kts | 163° |
| 2026-04-21 10:01 | -39.49653 | 145.65380 | 25338 ft | 301 kts | 163° |
| 2026-04-21 10:01 | -39.51635 | 145.66283 | 25341 ft | 300 kts | 163° |
| 2026-04-21 10:01 | -39.53595 | 145.67173 | 25343 ft | 300 kts | 164° |
| 2026-04-21 10:01 | -39.55554 | 145.68047 | 25339 ft | 300 kts | 163° |
| 2026-04-21 10:02 | -39.59497 | 145.69842 | 25342 ft | 300 kts | 163° |
| 2026-04-21 10:02 | -39.61485 | 145.70742 | 25346 ft | 300 kts | 163° |
| 2026-04-21 10:02 | -39.63444 | 145.71628 | 25351 ft | 300 kts | 164° |
| 2026-04-21 10:03 | -39.65424 | 145.72529 | 25352 ft | 300 kts | 163° |
| 2026-04-21 10:03 | -39.67384 | 145.73421 | 25350 ft | 300 kts | 163° |
| 2026-04-21 10:03 | -39.69369 | 145.74326 | 25353 ft | 300 kts | 163° |
| 2026-04-21 10:03 | -39.71326 | 145.75214 | 25355 ft | 300 kts | 163° |
| 2026-04-21 10:04 | -39.73312 | 145.76117 | 25355 ft | 300 kts | 163° |
| 2026-04-21 10:04 | -39.75266 | 145.77011 | 25360 ft | 300 kts | 163° |
| 2026-04-21 10:04 | -39.77251 | 145.77917 | 25357 ft | 301 kts | 163° |
| 2026-04-21 10:04 | -39.79217 | 145.78806 | 25359 ft | 301 kts | 163° |
| 2026-04-21 10:05 | -39.81204 | 145.79710 | 25360 ft | 301 kts | 164° |
| 2026-04-21 10:05 | -39.83178 | 145.80618 | 25362 ft | 300 kts | 163° |
| 2026-04-21 10:05 | -39.85148 | 145.81522 | 25362 ft | 300 kts | 163° |
| 2026-04-21 10:05 | -39.87127 | 145.82426 | 25364 ft | 300 kts | 163° |
| 2026-04-21 10:06 | -39.89084 | 145.83318 | 25363 ft | 300 kts | 163° |
| 2026-04-21 10:06 | -39.91068 | 145.84226 | 25364 ft | 300 kts | 163° |
| 2026-04-21 10:06 | -39.93024 | 145.85123 | 25367 ft | 300 kts | 162° |
| 2026-04-21 10:06 | -39.95007 | 145.86033 | 25366 ft | 301 kts | 163° |
| 2026-04-21 10:07 | -39.96970 | 145.86933 | 25366 ft | 301 kts | 163° |
| 2026-04-21 10:07 | -39.98954 | 145.87842 | 25365 ft | 301 kts | 163° |
| 2026-04-21 10:07 | -40.00912 | 145.88744 | 25368 ft | 301 kts | 163° |
| 2026-04-21 10:07 | -40.02895 | 145.89661 | 25370 ft | 301 kts | 163° |
| 2026-04-21 10:08 | -40.04851 | 145.90564 | 25370 ft | 301 kts | 163° |
| 2026-04-21 10:08 | -40.06831 | 145.91483 | 25373 ft | 301 kts | 163° |
| 2026-04-21 10:08 | -40.08793 | 145.92395 | 25370 ft | 301 kts | 163° |
| 2026-04-21 10:08 | -40.10774 | 145.93314 | 25371 ft | 301 kts | 163° |
| 2026-04-21 10:09 | -40.12755 | 145.94232 | 25372 ft | 301 kts | 163° |
| 2026-04-21 10:09 | -40.14703 | 145.95135 | 25374 ft | 301 kts | 163° |
| 2026-04-21 10:09 | -40.16686 | 145.96056 | 25379 ft | 301 kts | 163° |
| 2026-04-21 10:09 | -40.18665 | 145.96978 | 25375 ft | 301 kts | 163° |
| 2026-04-21 10:10 | -40.20637 | 145.97894 | 25375 ft | 301 kts | 163° |
| 2026-04-21 10:10 | -40.22591 | 145.98801 | 25377 ft | 301 kts | 163° |
| 2026-04-21 10:10 | -40.24568 | 145.99719 | 25377 ft | 301 kts | 163° |
| 2026-04-21 10:10 | -40.26546 | 146.00644 | 25380 ft | 301 kts | 163° |
| 2026-04-21 10:11 | -40.28507 | 146.01562 | 25381 ft | 301 kts | 163° |
| 2026-04-21 10:11 | -40.30486 | 146.02484 | 25380 ft | 301 kts | 163° |
| 2026-04-21 10:11 | -40.32441 | 146.03398 | 25383 ft | 301 kts | 163° |
| 2026-04-21 10:11 | -40.34417 | 146.04318 | 25385 ft | 301 kts | 163° |
| 2026-04-21 10:12 | -40.36395 | 146.05242 | 25387 ft | 301 kts | 163° |
| 2026-04-21 10:12 | -40.38355 | 146.06160 | 25385 ft | 301 kts | 163° |
| 2026-04-21 10:12 | -40.40333 | 146.07084 | 25389 ft | 301 kts | 163° |
| 2026-04-21 10:12 | -40.42313 | 146.08012 | 25387 ft | 301 kts | 163° |
| 2026-04-21 10:13 | -40.44290 | 146.08937 | 25388 ft | 301 kts | 163° |
| 2026-04-21 10:13 | -40.46245 | 146.09857 | 25388 ft | 301 kts | 163° |
| 2026-04-21 10:13 | -40.48230 | 146.10787 | 25387 ft | 301 kts | 163° |
| 2026-04-21 10:13 | -40.50190 | 146.11705 | 25392 ft | 301 kts | 163° |
| 2026-04-21 10:14 | -40.52172 | 146.12637 | 25392 ft | 302 kts | 163° |
| 2026-04-21 10:14 | -40.54141 | 146.13565 | 25393 ft | 302 kts | 163° |
| 2026-04-21 10:14 | -40.56123 | 146.14496 | 25397 ft | 302 kts | 163° |
| 2026-04-21 10:14 | -40.58087 | 146.15418 | 25396 ft | 302 kts | 163° |
| 2026-04-21 10:15 | -40.60069 | 146.16351 | 25397 ft | 302 kts | 163° |
| 2026-04-21 10:15 | -40.62049 | 146.17287 | 25398 ft | 302 kts | 162° |
| 2026-04-21 10:15 | -40.64028 | 146.18222 | 25405 ft | 302 kts | 162° |
| 2026-04-21 10:15 | -40.66008 | 146.19154 | 25402 ft | 302 kts | 163° |
| 2026-04-21 10:16 | -40.67976 | 146.20130 | 25400 ft | 303 kts | 159° |
| 2026-04-21 10:16 | -40.69894 | 146.21295 | 25401 ft | 303 kts | 158° |
| 2026-04-21 10:16 | -40.71813 | 146.22475 | 25405 ft | 304 kts | 155° |
| 2026-04-21 10:16 | -40.73583 | 146.24035 | 25407 ft | 308 kts | 142° |
| 2026-04-21 10:17 | -40.75051 | 146.26101 | 25405 ft | 311 kts | 132° |
| 2026-04-21 10:17 | -40.76417 | 146.28307 | 25405 ft | 310 kts | 134° |
| 2026-04-21 10:17 | -40.77905 | 146.30301 | 25404 ft | 308 kts | 142° |
| 2026-04-21 10:17 | -40.79578 | 146.32057 | 25405 ft | 307 kts | 146° |
| 2026-04-21 10:18 | -40.81276 | 146.33830 | 25409 ft | 308 kts | 143° |
| 2026-04-21 10:18 | -40.82890 | 146.35687 | 25415 ft | 308 kts | 142° |
| 2026-04-21 10:18 | -40.84480 | 146.37533 | 25411 ft | 308 kts | 142° |
| 2026-04-21 10:18 | -40.86117 | 146.39367 | 25412 ft | 308 kts | 143° |
| 2026-04-21 10:19 | -40.87756 | 146.41194 | 25417 ft | 308 kts | 142° |
| 2026-04-21 10:19 | -40.89386 | 146.43034 | 25384 ft | 308 kts | 142° |
| 2026-04-21 10:19 | -40.91001 | 146.44870 | 25172 ft | 304 kts | 142° |
| 2026-04-21 10:19 | -40.92616 | 146.46695 | 24797 ft | 306 kts | 142° |
| 2026-04-21 10:20 | -40.93693 | 146.47911 | 24553 ft | 308 kts | 142° |
| 2026-04-21 10:20 | -40.95875 | 146.50384 | 24067 ft | 309 kts | 142° |
| 2026-04-21 10:20 | -40.97512 | 146.52235 | 23656 ft | 310 kts | 142° |
| 2026-04-21 10:20 | -40.99126 | 146.54060 | 23233 ft | 309 kts | 142° |
| 2026-04-21 10:21 | -41.00757 | 146.55914 | 22816 ft | 309 kts | 142° |
| 2026-04-21 10:21 | -41.02384 | 146.57764 | 22401 ft | 308 kts | 142° |
| 2026-04-21 10:21 | -41.03485 | 146.59016 | 22097 ft | 309 kts | 141° |
| 2026-04-21 10:21 | -41.05122 | 146.60871 | 21641 ft | 309 kts | 142° |
| 2026-04-21 10:22 | -41.06736 | 146.62707 | 21200 ft | 310 kts | 141° |
| 2026-04-21 10:22 | -41.08371 | 146.64572 | 20760 ft | 310 kts | 141° |
| 2026-04-21 10:22 | -41.10012 | 146.66435 | 20331 ft | 310 kts | 141° |
| 2026-04-21 10:22 | -41.11645 | 146.68292 | 19902 ft | 310 kts | 141° |
| 2026-04-21 10:23 | -41.13277 | 146.70158 | 19482 ft | 309 kts | 141° |
| 2026-04-21 10:23 | -41.14907 | 146.72020 | 19065 ft | 309 kts | 141° |
| 2026-04-21 10:23 | -41.16542 | 146.73883 | 18644 ft | 309 kts | 141° |
| 2026-04-21 10:23 | -41.18174 | 146.75747 | 18167 ft | 309 kts | 141° |
| 2026-04-21 10:24 | -41.19794 | 146.77601 | 17707 ft | 308 kts | 140° |
| 2026-04-21 10:24 | -41.21418 | 146.79461 | 17246 ft | 307 kts | 140° |
| 2026-04-21 10:24 | -41.23035 | 146.81312 | 16796 ft | 307 kts | 140° |
| 2026-04-21 10:24 | -41.24652 | 146.83163 | 16349 ft | 306 kts | 140° |
| 2026-04-21 10:25 | -41.26264 | 146.85009 | 15909 ft | 306 kts | 140° |
| 2026-04-21 10:25 | -41.27848 | 146.86829 | 15483 ft | 305 kts | 140° |
| 2026-04-21 10:25 | -41.29453 | 146.88671 | 15054 ft | 304 kts | 140° |
| 2026-04-21 10:25 | -41.31053 | 146.90507 | 14636 ft | 303 kts | 140° |
| 2026-04-21 10:26 | -41.32648 | 146.92342 | 14213 ft | 302 kts | 140° |
| 2026-04-21 10:26 | -41.34207 | 146.94135 | 13753 ft | 302 kts | 139° |
| 2026-04-21 10:26 | -41.35791 | 146.95960 | 13290 ft | 301 kts | 139° |
| 2026-04-21 10:26 | -41.37368 | 146.97774 | 12832 ft | 299 kts | 139° |
| 2026-04-21 10:27 | -41.38936 | 146.99583 | 12383 ft | 294 kts | 139° |
| 2026-04-21 10:27 | -41.40451 | 147.01333 | 11938 ft | 283 kts | 139° |
| 2026-04-21 10:27 | -41.41920 | 147.03031 | 11495 ft | 277 kts | 139° |
| 2026-04-21 10:27 | -41.43365 | 147.04697 | 11056 ft | 272 kts | 139° |
| 2026-04-21 10:28 | -41.44785 | 147.06337 | 10628 ft | 269 kts | 139° |
| 2026-04-21 10:28 | -41.46192 | 147.07966 | 10185 ft | 266 kts | 139° |
| 2026-04-21 10:28 | -41.47587 | 147.09580 | 9713 ft | 264 kts | 139° |
| 2026-04-21 10:28 | -41.49040 | 147.11050 | 9187 ft | 259 kts | 147° |
| 2026-04-21 10:29 | -41.50588 | 147.12229 | 8656 ft | 254 kts | 152° |
| 2026-04-21 10:29 | -41.52146 | 147.13306 | 8126 ft | 250 kts | 152° |
| 2026-04-21 10:29 | -41.53692 | 147.14352 | 7607 ft | 247 kts | 152° |
| 2026-04-21 10:29 | -41.55200 | 147.15357 | 7102 ft | 242 kts | 153° |
| 2026-04-21 10:30 | -41.56688 | 147.16342 | 6584 ft | 236 kts | 153° |
| 2026-04-21 10:30 | -41.58145 | 147.17303 | 6041 ft | 231 kts | 153° |
| 2026-04-21 10:30 | -41.59567 | 147.18242 | 5515 ft | 224 kts | 153° |
| 2026-04-21 10:30 | -41.60930 | 147.19145 | 5064 ft | 213 kts | 153° |
| 2026-04-21 10:31 | -41.62226 | 147.20005 | 4647 ft | 203 kts | 153° |
| 2026-04-21 10:31 | -41.63469 | 147.20825 | 4234 ft | 195 kts | 153° |
| 2026-04-21 10:31 | -41.64672 | 147.21614 | 3827 ft | 189 kts | 153° |
| 2026-04-21 10:31 | -41.65840 | 147.22374 | 3414 ft | 185 kts | 153° |
| 2026-04-21 10:32 | -41.66985 | 147.23121 | 3026 ft | 180 kts | 153° |
| 2026-04-21 10:32 | -41.67945 | 147.23974 | 2989 ft | 154 kts | 124° |
| 2026-04-21 10:32 | -41.68123 | 147.25238 | 2994 ft | 137 kts | 73° |
| 2026-04-21 10:32 | -41.67780 | 147.26404 | 2990 ft | 132 kts | 62° |
| 2026-04-21 10:33 | -41.67271 | 147.27405 | 2991 ft | 129 kts | 50° |
| 2026-04-21 10:33 | -41.66690 | 147.28296 | 2989 ft | 126 kts | 50° |
| 2026-04-21 10:33 | -41.66121 | 147.29163 | 2986 ft | 123 kts | 44° |
| 2026-04-21 10:33 | -41.65337 | 147.29467 | 2993 ft | 121 kts | 358° |
| 2026-04-21 10:34 | -41.64513 | 147.29245 | 2961 ft | 122 kts | 349° |
| 2026-04-21 10:34 | -41.63696 | 147.28863 | 2829 ft | 127 kts | 329° |
| 2026-04-21 10:34 | -41.62904 | 147.28247 | 2475 ft | 136 kts | 331° |
| 2026-04-21 10:34 | -41.62094 | 147.27583 | 2133 ft | 140 kts | 329° |
| 2026-04-21 10:35 | -41.61248 | 147.26883 | 1772 ft | 142 kts | 328° |
| 2026-04-21 10:35 | -41.60504 | 147.26270 | 1732 ft | 115 kts | 328° |
| 2026-04-21 10:35 | -41.59877 | 147.25714 | 1656 ft | 104 kts | 324° |
| 2026-04-21 10:35 | -41.59290 | 147.25159 | 1622 ft | 102 kts | 325° |
| 2026-04-21 10:36 | -41.58677 | 147.24632 | 1491 ft | 107 kts | 329° |
| 2026-04-21 10:36 | -41.58025 | 147.24124 | 1352 ft | 109 kts | 328° |
| 2026-04-21 10:36 | -41.57391 | 147.23577 | 1176 ft | 108 kts | 325° |
| 2026-04-21 10:36 | -41.56766 | 147.23035 | 1023 ft | 105 kts | 325° |
| 2026-04-21 10:37 | -41.56152 | 147.22516 | 873 ft | 105 kts | 325° |
| 2026-04-21 10:37 | -41.55549 | 147.21991 | 731 ft | 103 kts | 325° |
| 2026-04-21 10:37 | -41.54961 | 147.21491 | 599 ft | 95 kts | 325° |
| 2026-04-21 10:37 | -41.54466 | 147.21065 | 591 ft | 52 kts | 328° |
| 2026-04-21 10:38 | -41.54305 | 147.20920 | 588 ft | 14 kts | 313° |
| 2026-04-21 10:38 | -41.54308 | 147.20829 | 582 ft | 9 kts | 239° |
| 2026-04-21 10:38 | -41.54328 | 147.20788 | 580 ft | 0 kts | 237° |
| 2026-04-21 10:40 | -41.54329 | 147.20784 | 580 ft | 3 kts | 249° |
| 2026-04-21 10:40 | -41.54317 | 147.20747 | 580 ft | 6 kts | 323° |
| 2026-04-21 10:40 | -41.54279 | 147.20714 | 580 ft | 6 kts | 327° |
| 2026-04-21 10:40 | -41.54236 | 147.20679 | 580 ft | 7 kts | 329° |
| 2026-04-21 10:41 | -41.54219 | 147.20651 | 580 ft | 5 kts | 274° |
| 2026-04-21 10:41 | -41.54217 | 147.20604 | 580 ft | 4 kts | 307° |
| 2026-04-21 10:41 | -41.54210 | 147.20588 | 580 ft | 0 kts | 294° |